sensor_id;sensor_type;location;lat;lon;timestamp;pressure;altitude;pressure_sealevel;temperature;humidity
47374;BME280;33123;50.118;10.272;2023-04-08T00:01:56;97925.03;;;6.65;55.92
47374;BME280;33123;50.118;10.272;2023-04-08T00:04:23;97934.78;;;6.58;55.63
47374;BME280;33123;50.118;10.272;2023-04-08T00:06:49;97924.13;;;6.53;55.92
47374;BME280;33123;50.118;10.272;2023-04-08T00:09:16;97845.06;;;5.94;56.42
47374;BME280;33123;50.118;10.272;2023-04-08T00:11:44;97931.09;;;6.41;56.75
47374;BME280;33123;50.118;10.272;2023-04-08T00:14:11;97928.88;;;6.38;56.34
47374;BME280;33123;50.118;10.272;2023-04-08T00:16:37;97921.53;;;6.28;56.23
47374;BME280;33123;50.118;10.272;2023-04-08T00:19:04;97925.97;;;6.27;55.74
47374;BME280;33123;50.118;10.272;2023-04-08T00:21:31;97919.53;;;6.23;56.39
47374;BME280;33123;50.118;10.272;2023-04-08T00:23:58;97919.94;;;6.20;56.69
47374;BME280;33123;50.118;10.272;2023-04-08T00:26:24;97925.00;;;6.15;56.75
47374;BME280;33123;50.118;10.272;2023-04-08T00:28:53;97923.03;;;6.11;57.29
47374;BME280;33123;50.118;10.272;2023-04-08T00:31:19;97921.88;;;6.06;57.07
47374;BME280;33123;50.118;10.272;2023-04-08T00:33:46;97923.50;;;6.01;56.90
47374;BME280;33123;50.118;10.272;2023-04-08T00:36:13;97926.53;;;5.98;57.52
47374;BME280;33123;50.118;10.272;2023-04-08T00:38:39;97917.09;;;5.90;57.85
47374;BME280;33123;50.118;10.272;2023-04-08T00:41:06;97927.97;;;5.94;57.98
47374;BME280;33123;50.118;10.272;2023-04-08T00:43:32;97925.56;;;5.92;58.51
47374;BME280;33123;50.118;10.272;2023-04-08T00:46:00;97926.34;;;5.93;58.55
47374;BME280;33123;50.118;10.272;2023-04-08T00:48:28;97918.50;;;5.93;58.83
47374;BME280;33123;50.118;10.272;2023-04-08T00:50:55;97929.59;;;5.95;58.74
47374;BME280;33123;50.118;10.272;2023-04-08T00:53:22;97927.56;;;5.97;58.15
47374;BME280;33123;50.118;10.272;2023-04-08T00:55:48;97921.91;;;6.00;58.63
47374;BME280;33123;50.118;10.272;2023-04-08T00:58:17;97929.09;;;6.04;58.57
47374;BME280;33123;50.118;10.272;2023-04-08T01:00:48;97924.25;;;6.08;58.38
47374;BME280;33123;50.118;10.272;2023-04-08T01:03:26;97931.47;;;6.13;58.58
47374;BME280;33123;50.118;10.272;2023-04-08T01:06:06;97935.06;;;6.18;58.28
47374;BME280;33123;50.118;10.272;2023-04-08T01:08:37;97936.25;;;6.22;58.21
47374;BME280;33123;50.118;10.272;2023-04-08T01:11:07;97931.19;;;6.27;58.03
47374;BME280;33123;50.118;10.272;2023-04-08T01:13:39;97929.72;;;6.31;57.82
47374;BME280;33123;50.118;10.272;2023-04-08T01:16:09;97928.31;;;6.35;56.96
47374;BME280;33123;50.118;10.272;2023-04-08T01:18:40;97930.50;;;6.39;58.26
47374;BME280;33123;50.118;10.272;2023-04-08T01:21:09;97934.28;;;6.43;57.98
47374;BME280;33123;50.118;10.272;2023-04-08T01:23:40;97930.00;;;6.48;57.84
47374;BME280;33123;50.118;10.272;2023-04-08T01:26:12;97891.94;;;6.27;57.66
47374;BME280;33123;50.118;10.272;2023-04-08T01:28:47;97936.81;;;6.56;58.01
47374;BME280;33123;50.118;10.272;2023-04-08T01:31:15;97925.09;;;6.58;56.59
47374;BME280;33123;50.118;10.272;2023-04-08T01:33:43;97935.94;;;6.62;56.95
47374;BME280;33123;50.118;10.272;2023-04-08T01:36:10;97934.47;;;6.66;56.65
47374;BME280;33123;50.118;10.272;2023-04-08T01:38:37;97933.06;;;6.70;57.29
47374;BME280;33123;50.118;10.272;2023-04-08T01:41:05;97929.84;;;6.68;56.56
47374;BME280;33123;50.118;10.272;2023-04-08T01:43:35;97875.31;;;6.40;56.41
47374;BME280;33123;50.118;10.272;2023-04-08T01:46:05;97932.97;;;6.77;56.21
47374;BME280;33123;50.118;10.272;2023-04-08T01:48:34;97928.13;;;6.80;56.29
47374;BME280;33123;50.118;10.272;2023-04-08T01:51:03;97930.53;;;6.82;56.85
47374;BME280;33123;50.118;10.272;2023-04-08T01:53:30;97929.31;;;6.84;56.67
47374;BME280;33123;50.118;10.272;2023-04-08T01:56:01;97931.69;;;6.86;56.87
47374;BME280;33123;50.118;10.272;2023-04-08T01:58:31;97930.47;;;6.88;56.55
47374;BME280;33123;50.118;10.272;2023-04-08T02:01:04;97933.91;;;6.89;57.36
47374;BME280;33123;50.118;10.272;2023-04-08T02:03:32;97933.69;;;6.91;55.74
47374;BME280;33123;50.118;10.272;2023-04-08T02:06:00;97942.56;;;6.90;55.91
47374;BME280;33123;50.118;10.272;2023-04-08T02:08:27;97936.88;;;6.93;55.89
47374;BME280;33123;50.118;10.272;2023-04-08T02:10:54;97933.69;;;6.91;56.02
47374;BME280;33123;50.118;10.272;2023-04-08T02:13:20;97938.47;;;6.94;55.31
47374;BME280;33123;50.118;10.272;2023-04-08T02:15:51;97940.28;;;6.93;54.27
47374;BME280;33123;50.118;10.272;2023-04-08T02:18:24;97937.63;;;7.00;54.09
47374;BME280;33123;50.118;10.272;2023-04-08T02:20:56;97942.00;;;7.06;53.90
47374;BME280;33123;50.118;10.272;2023-04-08T02:23:26;97937.09;;;7.09;54.71
47374;BME280;33123;50.118;10.272;2023-04-08T02:25:55;97945.91;;;7.15;54.91
47374;BME280;33123;50.118;10.272;2023-04-08T02:28:22;97939.47;;;7.18;54.96
47374;BME280;33123;50.118;10.272;2023-04-08T02:30:51;97942.00;;;7.24;54.98
47374;BME280;33123;50.118;10.272;2023-04-08T02:33:21;97941.44;;;7.22;54.10
47374;BME280;33123;50.118;10.272;2023-04-08T02:35:49;97942.38;;;7.28;53.82
47374;BME280;33123;50.118;10.272;2023-04-08T02:38:19;97939.31;;;7.31;53.05
47374;BME280;33123;50.118;10.272;2023-04-08T02:40:48;97940.91;;;7.32;53.09
47374;BME280;33123;50.118;10.272;2023-04-08T02:43:15;97943.91;;;7.35;53.00
47374;BME280;33123;50.118;10.272;2023-04-08T02:45:42;97942.88;;;7.36;52.87
47374;BME280;33123;50.118;10.272;2023-04-08T02:48:09;97946.09;;;7.38;52.12
47374;BME280;33123;50.118;10.272;2023-04-08T02:50:38;97948.50;;;7.40;52.10
47374;BME280;33123;50.118;10.272;2023-04-08T02:53:07;97949.72;;;7.37;51.84
47374;BME280;33123;50.118;10.272;2023-04-08T02:55:33;97946.28;;;7.37;52.21
47374;BME280;33123;50.118;10.272;2023-04-08T02:58:00;97956.63;;;7.32;51.56
47374;BME280;33123;50.118;10.272;2023-04-08T03:00:27;97956.28;;;7.28;51.73
47374;BME280;33123;50.118;10.272;2023-04-08T03:02:53;97957.16;;;7.22;51.81
47374;BME280;33123;50.118;10.272;2023-04-08T03:05:20;97952.75;;;7.16;51.95
47374;BME280;33123;50.118;10.272;2023-04-08T03:07:48;97954.81;;;7.14;53.04
47374;BME280;33123;50.118;10.272;2023-04-08T03:10:15;97959.91;;;7.09;53.14
47374;BME280;33123;50.118;10.272;2023-04-08T03:12:42;97955.16;;;6.99;52.95
47374;BME280;33123;50.118;10.272;2023-04-08T03:15:09;97955.75;;;7.01;53.61
47374;BME280;33123;50.118;10.272;2023-04-08T03:17:35;97963.63;;;7.01;54.63
47374;BME280;33123;50.118;10.272;2023-04-08T03:20:02;97958.59;;;7.00;54.62
47374;BME280;33123;50.118;10.272;2023-04-08T03:22:29;97957.56;;;7.01;54.21
47374;BME280;33123;50.118;10.272;2023-04-08T03:24:57;97956.56;;;7.02;54.08
47374;BME280;33123;50.118;10.272;2023-04-08T03:27:26;97959.75;;;7.04;53.80
47374;BME280;33123;50.118;10.272;2023-04-08T03:29:53;97959.31;;;7.07;54.28
47374;BME280;33123;50.118;10.272;2023-04-08T03:32:19;97960.94;;;7.08;53.61
47374;BME280;33123;50.118;10.272;2023-04-08T03:34:46;97960.50;;;7.11;53.93
47374;BME280;33123;50.118;10.272;2023-04-08T03:37:15;97962.69;;;7.14;53.41
47374;BME280;33123;50.118;10.272;2023-04-08T03:39:42;97959.63;;;7.17;53.14
47374;BME280;33123;50.118;10.272;2023-04-08T03:42:09;97965.44;;;7.19;53.38
47374;BME280;33123;50.118;10.272;2023-04-08T03:44:37;97962.81;;;7.19;53.06
47374;BME280;33123;50.118;10.272;2023-04-08T03:47:04;97967.66;;;7.22;53.71
47374;BME280;33123;50.118;10.272;2023-04-08T03:49:30;97969.03;;;7.25;53.32
47374;BME280;33123;50.118;10.272;2023-04-08T03:51:57;97970.38;;;7.27;53.63
47374;BME280;33123;50.118;10.272;2023-04-08T03:54:23;97971.22;;;7.28;53.00
47374;BME280;33123;50.118;10.272;2023-04-08T03:56:50;97970.78;;;7.31;53.25
47374;BME280;33123;50.118;10.272;2023-04-08T03:59:18;97971.56;;;7.31;52.53
47374;BME280;33123;50.118;10.272;2023-04-08T04:01:44;97974.56;;;7.35;52.68
47374;BME280;33123;50.118;10.272;2023-04-08T04:04:12;97964.50;;;7.32;53.13
47374;BME280;33123;50.118;10.272;2023-04-08T04:06:39;97977.75;;;7.37;53.88
47374;BME280;33123;50.118;10.272;2023-04-08T04:09:05;97976.72;;;7.38;52.29
47374;BME280;33123;50.118;10.272;2023-04-08T04:11:33;97983.59;;;7.39;52.87
47374;BME280;33123;50.118;10.272;2023-04-08T04:13:59;97975.50;;;7.40;52.84
47374;BME280;33123;50.118;10.272;2023-04-08T04:16:27;97984.97;;;7.41;52.95
47374;BME280;33123;50.118;10.272;2023-04-08T04:18:54;97986.00;;;7.40;51.73
47374;BME280;33123;50.118;10.272;2023-04-08T04:21:21;97983.16;;;7.42;52.27
47374;BME280;33123;50.118;10.272;2023-04-08T04:23:47;97980.31;;;7.44;51.79
47374;BME280;33123;50.118;10.272;2023-04-08T04:26:14;97981.94;;;7.45;51.48
47374;BME280;33123;50.118;10.272;2023-04-08T04:28:40;97993.22;;;7.45;51.21
47374;BME280;33123;50.118;10.272;2023-04-08T04:31:07;97984.75;;;7.43;50.77
47374;BME280;33123;50.118;10.272;2023-04-08T04:33:35;97985.94;;;7.47;51.21
47374;BME280;33123;50.118;10.272;2023-04-08T04:36:01;97988.94;;;7.51;51.33
47374;BME280;33123;50.118;10.272;2023-04-08T04:38:28;98000.00;;;7.53;51.19
47374;BME280;33123;50.118;10.272;2023-04-08T04:40:55;97986.31;;;7.51;51.33
47374;BME280;33123;50.118;10.272;2023-04-08T04:43:22;97993.94;;;7.52;51.45
47374;BME280;33123;50.118;10.272;2023-04-08T04:45:48;98002.19;;;7.56;51.59
47374;BME280;33123;50.118;10.272;2023-04-08T04:48:15;97998.31;;;7.58;51.72
47374;BME280;33123;50.118;10.272;2023-04-08T04:50:43;98002.19;;;7.56;52.86
47374;BME280;33123;50.118;10.272;2023-04-08T04:53:09;98001.31;;;7.62;53.20
47374;BME280;33123;50.118;10.272;2023-04-08T04:55:36;97937.00;;;7.23;54.12
47374;BME280;33123;50.118;10.272;2023-04-08T04:58:03;98008.72;;;7.65;54.84
47374;BME280;33123;50.118;10.272;2023-04-08T05:00:29;98004.97;;;7.61;56.33
47374;BME280;33123;50.118;10.272;2023-04-08T05:02:56;98015.13;;;7.69;56.57
47374;BME280;33123;50.118;10.272;2023-04-08T05:05:22;98011.50;;;7.70;57.44
47374;BME280;33123;50.118;10.272;2023-04-08T05:07:50;98019.13;;;7.72;58.03
47374;BME280;33123;50.118;10.272;2023-04-08T05:10:18;98018.78;;;7.68;58.34
47374;BME280;33123;50.118;10.272;2023-04-08T05:12:46;98018.19;;;7.66;58.04
47374;BME280;33123;50.118;10.272;2023-04-08T05:15:12;98003.19;;;7.55;58.33
47374;BME280;33123;50.118;10.272;2023-04-08T05:17:39;98017.19;;;7.67;58.35
47374;BME280;33123;50.118;10.272;2023-04-08T05:20:06;98020.00;;;7.65;58.03
47374;BME280;33123;50.118;10.272;2023-04-08T05:22:33;98027.69;;;7.67;59.10
47374;BME280;33123;50.118;10.272;2023-04-08T05:25:01;98022.22;;;7.68;58.56
47374;BME280;33123;50.118;10.272;2023-04-08T05:27:28;98030.31;;;7.67;58.58
47374;BME280;33123;50.118;10.272;2023-04-08T05:29:54;98026.66;;;7.68;58.53
47374;BME280;33123;50.118;10.272;2023-04-08T05:32:21;98028.09;;;7.64;59.06
47374;BME280;33123;50.118;10.272;2023-04-08T05:34:47;98034.94;;;7.65;59.52
47374;BME280;33123;50.118;10.272;2023-04-08T05:37:14;98044.38;;;7.73;60.16
47374;BME280;33123;50.118;10.272;2023-04-08T05:39:41;98031.75;;;7.63;60.01
47374;BME280;33123;50.118;10.272;2023-04-08T05:42:09;98038.97;;;7.67;61.05
47374;BME280;33123;50.118;10.272;2023-04-08T05:44:37;98038.91;;;7.74;61.60
47374;BME280;33123;50.118;10.272;2023-04-08T05:47:05;98033.44;;;7.76;61.56
47374;BME280;33123;50.118;10.272;2023-04-08T05:49:32;98037.31;;;7.73;61.52
47374;BME280;33123;50.118;10.272;2023-04-08T05:51:59;98034.03;;;7.78;61.59
47374;BME280;33123;50.118;10.272;2023-04-08T05:54:25;98039.63;;;7.81;62.43
47374;BME280;33123;50.118;10.272;2023-04-08T05:56:52;98035.53;;;7.85;61.78
47374;BME280;33123;50.118;10.272;2023-04-08T05:59:20;98042.38;;;7.86;62.02
47374;BME280;33123;50.118;10.272;2023-04-08T06:01:46;98044.13;;;7.92;62.62
47374;BME280;33123;50.118;10.272;2023-04-08T06:04:13;98042.09;;;7.94;62.37
47374;BME280;33123;50.118;10.272;2023-04-08T06:06:41;98043.56;;;7.90;61.52
47374;BME280;33123;50.118;10.272;2023-04-08T06:09:08;98042.09;;;7.94;61.75
47374;BME280;33123;50.118;10.272;2023-04-08T06:11:35;98051.41;;;8.09;62.00
47374;BME280;33123;50.118;10.272;2023-04-08T06:14:01;98052.56;;;8.13;61.92
47374;BME280;33123;50.118;10.272;2023-04-08T06:16:29;98048.03;;;8.20;61.74
47374;BME280;33123;50.118;10.272;2023-04-08T06:18:56;98044.31;;;8.28;61.32
47374;BME280;33123;50.118;10.272;2023-04-08T06:21:23;98046.72;;;8.29;60.93
47374;BME280;33123;50.118;10.272;2023-04-08T06:23:49;98049.03;;;8.37;60.90
47374;BME280;33123;50.118;10.272;2023-04-08T06:26:16;98052.41;;;8.44;60.80
47374;BME280;33123;50.118;10.272;2023-04-08T06:28:43;98051.25;;;8.40;59.78
47374;BME280;33123;50.118;10.272;2023-04-08T06:31:09;98062.53;;;8.41;60.57
47374;BME280;33123;50.118;10.272;2023-04-08T06:33:37;98057.78;;;8.31;59.90
47374;BME280;33123;50.118;10.272;2023-04-08T06:36:05;98060.06;;;8.28;60.25
47374;BME280;33123;50.118;10.272;2023-04-08T06:38:32;98041.03;;;8.14;60.94
47374;BME280;33123;50.118;10.272;2023-04-08T06:41:01;98070.59;;;8.28;60.75
47374;BME280;33123;50.118;10.272;2023-04-08T06:43:28;98071.38;;;8.28;61.08
47374;BME280;33123;50.118;10.272;2023-04-08T06:45:55;98073.78;;;8.30;60.90
47374;BME280;33123;50.118;10.272;2023-04-08T06:48:22;98064.72;;;8.26;60.73
47374;BME280;33123;50.118;10.272;2023-04-08T06:50:54;98067.25;;;8.32;61.51
47374;BME280;33123;50.118;10.272;2023-04-08T06:53:21;98070.34;;;8.29;61.36
47374;BME280;33123;50.118;10.272;2023-04-08T06:55:48;98066.56;;;8.25;61.38
47374;BME280;33123;50.118;10.272;2023-04-08T06:58:15;98076.16;;;8.31;62.58
47374;BME280;33123;50.118;10.272;2023-04-08T07:00:41;98085.94;;;8.61;62.25
47374;BME280;33123;50.118;10.272;2023-04-08T07:03:08;98082.22;;;8.80;60.95
47374;BME280;33123;50.118;10.272;2023-04-08T07:05:35;98092.88;;;9.09;60.47
47374;BME280;33123;50.118;10.272;2023-04-08T07:08:04;98086.16;;;9.24;60.61
47374;BME280;33123;50.118;10.272;2023-04-08T07:10:31;98049.47;;;9.06;59.56
47374;BME280;33123;50.118;10.272;2023-04-08T07:12:57;98097.84;;;9.40;59.97
47374;BME280;33123;50.118;10.272;2023-04-08T07:15:24;98089.16;;;9.40;59.76
47374;BME280;33123;50.118;10.272;2023-04-08T07:17:50;98090.53;;;9.42;59.97
47374;BME280;33123;50.118;10.272;2023-04-08T07:20:17;98101.63;;;9.44;59.49
47374;BME280;33123;50.118;10.272;2023-04-08T07:22:44;98096.25;;;9.51;59.22
47374;BME280;33123;50.118;10.272;2023-04-08T07:25:12;98096.81;;;9.41;59.18
47374;BME280;33123;50.118;10.272;2023-04-08T07:27:38;98094.31;;;9.46;58.56
47374;BME280;33123;50.118;10.272;2023-04-08T07:30:06;98101.84;;;9.43;58.44
47374;BME280;33123;50.118;10.272;2023-04-08T07:32:33;98102.63;;;9.43;59.32
47374;BME280;33123;50.118;10.272;2023-04-08T07:35:01;98113.16;;;9.43;58.67
47374;BME280;33123;50.118;10.272;2023-04-08T07:37:27;98116.50;;;9.50;59.15
47374;BME280;33123;50.118;10.272;2023-04-08T07:39:54;98120.50;;;9.53;59.31
47374;BME280;33123;50.118;10.272;2023-04-08T07:42:22;98120.06;;;9.56;59.30
47374;BME280;33123;50.118;10.272;2023-04-08T07:44:48;98119.25;;;9.56;59.23
47374;BME280;33123;50.118;10.272;2023-04-08T07:47:16;98118.34;;;9.62;60.37
47374;BME280;33123;50.118;10.272;2023-04-08T07:49:45;98118.34;;;9.62;58.97
47374;BME280;33123;50.118;10.272;2023-04-08T07:52:12;98117.75;;;9.71;58.94
47374;BME280;33123;50.118;10.272;2023-04-08T07:54:39;98134.69;;;9.75;58.21
47374;BME280;33123;50.118;10.272;2023-04-08T07:57:06;98123.81;;;9.84;58.68
47374;BME280;33123;50.118;10.272;2023-04-08T07:59:34;98126.34;;;9.90;59.02
47374;BME280;33123;50.118;10.272;2023-04-08T08:02:01;98133.31;;;9.96;58.28
47374;BME280;33123;50.118;10.272;2023-04-08T08:04:28;98137.31;;;10.11;59.09
47374;BME280;33123;50.118;10.272;2023-04-08T08:06:54;98132.94;;;10.28;58.32
47374;BME280;33123;50.118;10.272;2023-04-08T08:09:21;98146.88;;;10.40;57.23
47374;BME280;33123;50.118;10.272;2023-04-08T08:11:48;98142.38;;;10.52;56.54
47374;BME280;33123;50.118;10.272;2023-04-08T08:14:15;98141.69;;;10.57;57.20
47374;BME280;33123;50.118;10.272;2023-04-08T08:16:45;98151.63;;;10.67;56.31
47374;BME280;33123;50.118;10.272;2023-04-08T08:19:12;98144.47;;;10.79;56.67
47374;BME280;33123;50.118;10.272;2023-04-08T08:21:40;98146.16;;;10.85;56.47
47374;BME280;33123;50.118;10.272;2023-04-08T08:24:07;98154.72;;;10.92;55.94
47374;BME280;33123;50.118;10.272;2023-04-08T08:26:34;98153.75;;;10.98;55.26
47374;BME280;33123;50.118;10.272;2023-04-08T08:29:03;98157.31;;;11.21;55.59
47374;BME280;33123;50.118;10.272;2023-04-08T08:31:30;98154.47;;;11.39;55.05
47374;BME280;33123;50.118;10.272;2023-04-08T08:33:59;98160.38;;;11.63;55.24
47374;BME280;33123;50.118;10.272;2023-04-08T08:36:27;98141.63;;;11.64;53.69
47374;BME280;33123;50.118;10.272;2023-04-08T08:38:54;98156.06;;;11.91;53.08
47374;BME280;33123;50.118;10.272;2023-04-08T08:41:20;98157.78;;;12.02;53.51
47374;BME280;33123;50.118;10.272;2023-04-08T08:43:48;98159.22;;;12.09;52.63
47374;BME280;33123;50.118;10.272;2023-04-08T08:46:15;98163.03;;;12.19;52.49
47374;BME280;33123;50.118;10.272;2023-04-08T08:48:43;98161.56;;;12.28;52.21
47374;BME280;33123;50.118;10.272;2023-04-08T08:51:12;98167.94;;;12.32;52.32
47374;BME280;33123;50.118;10.272;2023-04-08T08:53:40;98169.69;;;12.43;52.50
47374;BME280;33123;50.118;10.272;2023-04-08T08:56:09;98174.91;;;12.60;52.12
47374;BME280;33123;50.118;10.272;2023-04-08T08:58:37;98174.34;;;12.80;52.90
47374;BME280;33123;50.118;10.272;2023-04-08T09:01:28;98183.50;;;13.21;50.53
47374;BME280;33123;50.118;10.272;2023-04-08T09:04:06;98183.03;;;13.56;49.96
47374;BME280;33123;50.118;10.272;2023-04-08T09:06:35;98185.25;;;13.69;48.88
47374;BME280;33123;50.118;10.272;2023-04-08T09:09:02;98190.41;;;13.86;48.88
47374;BME280;33123;50.118;10.272;2023-04-08T09:11:30;98180.63;;;13.92;48.31
47374;BME280;33123;50.118;10.272;2023-04-08T09:13:58;98180.34;;;13.88;48.59
47374;BME280;33123;50.118;10.272;2023-04-08T09:16:24;98186.13;;;13.80;48.62
47374;BME280;33123;50.118;10.272;2023-04-08T09:18:53;98194.97;;;13.59;48.41
47374;BME280;33123;50.118;10.272;2023-04-08T09:21:22;98193.97;;;13.38;48.98
47374;BME280;33123;50.118;10.272;2023-04-08T09:23:52;98196.56;;;13.28;49.72
47374;BME280;33123;50.118;10.272;2023-04-08T09:26:20;98194.72;;;13.06;49.58
47374;BME280;33123;50.118;10.272;2023-04-08T09:28:57;98196.56;;;12.79;49.30
47374;BME280;33123;50.118;10.272;2023-04-08T09:31:25;98190.09;;;12.69;50.21
47374;BME280;33123;50.118;10.272;2023-04-08T09:33:53;98185.38;;;12.72;51.32
47374;BME280;33123;50.118;10.272;2023-04-08T09:36:20;98191.75;;;12.76;51.17
47374;BME280;33123;50.118;10.272;2023-04-08T09:38:46;98190.13;;;12.97;51.37
47374;BME280;33123;50.118;10.272;2023-04-08T09:41:16;98187.50;;;13.24;50.63
47374;BME280;33123;50.118;10.272;2023-04-08T09:43:43;98177.28;;;13.69;49.37
47374;BME280;33123;50.118;10.272;2023-04-08T09:46:15;98184.91;;;13.98;49.10
47374;BME280;33123;50.118;10.272;2023-04-08T09:48:55;98187.06;;;14.01;47.23
47374;BME280;33123;50.118;10.272;2023-04-08T09:51:24;98188.50;;;13.82;46.91
47374;BME280;33123;50.118;10.272;2023-04-08T09:53:56;98184.63;;;13.57;47.13
47374;BME280;33123;50.118;10.272;2023-04-08T09:56:30;98192.63;;;13.62;48.39
47374;BME280;33123;50.118;10.272;2023-04-08T09:59:02;98199.63;;;13.79;49.62
47374;BME280;33123;50.118;10.272;2023-04-08T10:01:37;98201.38;;;14.00;48.85
47374;BME280;33123;50.118;10.272;2023-04-08T10:04:05;98210.22;;;14.16;47.74
47374;BME280;33123;50.118;10.272;2023-04-08T10:06:35;98204.91;;;14.16;48.11
47374;BME280;33123;50.118;10.272;2023-04-08T10:09:02;98200.38;;;14.11;48.43
47374;BME280;33123;50.118;10.272;2023-04-08T10:11:30;98208.97;;;13.91;49.01
47374;BME280;33123;50.118;10.272;2023-04-08T10:13:57;98212.47;;;13.65;48.56
47374;BME280;33123;50.118;10.272;2023-04-08T10:16:24;98201.16;;;13.42;49.63
47374;BME280;33123;50.118;10.272;2023-04-08T10:18:52;98206.63;;;13.31;49.86
47374;BME280;33123;50.118;10.272;2023-04-08T10:21:37;98198.28;;;13.17;49.68
47374;BME280;33123;50.118;10.272;2023-04-08T10:24:08;98205.97;;;13.18;50.83
47374;BME280;33123;50.118;10.272;2023-04-08T10:26:41;98204.81;;;13.09;51.11
47374;BME280;33123;50.118;10.272;2023-04-08T10:29:30;98209.50;;;13.02;51.12
47374;BME280;33123;50.118;10.272;2023-04-08T10:31:57;98204.94;;;12.98;51.92
47374;BME280;33123;50.118;10.272;2023-04-08T10:34:25;98209.09;;;12.88;51.45
47374;BME280;33123;50.118;10.272;2023-04-08T10:36:52;98210.44;;;12.91;52.34
47374;BME280;33123;50.118;10.272;2023-04-08T10:39:21;98204.41;;;12.95;52.91
47374;BME280;33123;50.118;10.272;2023-04-08T10:41:49;98180.53;;;12.90;51.74
47374;BME280;33123;50.118;10.272;2023-04-08T10:44:16;98209.09;;;13.15;52.70
47374;BME280;33123;50.118;10.272;2023-04-08T10:46:43;98210.34;;;13.30;51.82
47374;BME280;33123;50.118;10.272;2023-04-08T10:49:10;98210.06;;;13.31;51.41
47374;BME280;33123;50.118;10.272;2023-04-08T10:51:37;98205.56;;;13.32;51.00
47374;BME280;33123;50.118;10.272;2023-04-08T10:54:07;98214.03;;;13.29;51.14
47374;BME280;33123;50.118;10.272;2023-04-08T10:56:35;98207.16;;;13.28;51.77
47374;BME280;33123;50.118;10.272;2023-04-08T10:59:03;98208.06;;;13.16;52.20
47374;BME280;33123;50.118;10.272;2023-04-08T11:01:37;98210.88;;;13.10;52.25
47374;BME280;33123;50.118;10.272;2023-04-08T11:04:12;98204.88;;;12.92;51.58
47374;BME280;33123;50.118;10.272;2023-04-08T11:06:41;98208.91;;;12.95;52.03
47374;BME280;33123;50.118;10.272;2023-04-08T11:09:08;98203.63;;;12.95;52.85
47374;BME280;33123;50.118;10.272;2023-04-08T11:11:34;98206.06;;;13.02;51.64
47374;BME280;33123;50.118;10.272;2023-04-08T11:14:03;98206.97;;;13.12;53.44
47374;BME280;33123;50.118;10.272;2023-04-08T11:16:30;98196.00;;;13.26;52.84
47374;BME280;33123;50.118;10.272;2023-04-08T11:18:57;98186.34;;;13.41;52.82
47374;BME280;33123;50.118;10.272;2023-04-08T11:21:24;98175.63;;;13.58;52.22
47374;BME280;33123;50.118;10.272;2023-04-08T11:23:54;98188.56;;;13.92;51.73
47374;BME280;33123;50.118;10.272;2023-04-08T11:26:21;98183.16;;;14.14;50.30
47374;BME280;33123;50.118;10.272;2023-04-08T11:28:49;98195.16;;;14.32;49.37
47374;BME280;33123;50.118;10.272;2023-04-08T11:31:19;98191.56;;;14.48;49.99
47374;BME280;33123;50.118;10.272;2023-04-08T11:33:48;98200.59;;;14.52;49.06
47374;BME280;33123;50.118;10.272;2023-04-08T11:36:17;98200.59;;;14.52;48.75
47374;BME280;33123;50.118;10.272;2023-04-08T11:38:44;98187.00;;;14.43;50.00
47374;BME280;33123;50.118;10.272;2023-04-08T11:41:12;98186.97;;;14.33;49.40
47374;BME280;33123;50.118;10.272;2023-04-08T11:43:50;98190.66;;;14.27;49.61
47374;BME280;33123;50.118;10.272;2023-04-08T11:46:18;98196.13;;;14.15;50.37
47374;BME280;33123;50.118;10.272;2023-04-08T11:48:58;98191.34;;;14.07;49.98
47374;BME280;33123;50.118;10.272;2023-04-08T11:51:25;98185.44;;;13.95;51.37
47374;BME280;33123;50.118;10.272;2023-04-08T11:53:53;98182.22;;;13.93;51.59
47374;BME280;33123;50.118;10.272;2023-04-08T11:56:20;98158.00;;;13.74;51.38
47374;BME280;33123;50.118;10.272;2023-04-08T11:58:48;98182.03;;;13.99;52.00
47374;BME280;33123;50.118;10.272;2023-04-08T12:01:15;98147.97;;;13.81;51.27
47374;BME280;33123;50.118;10.272;2023-04-08T12:03:56;98181.84;;;14.16;50.59
47374;BME280;33123;50.118;10.272;2023-04-08T12:06:23;98188.28;;;14.31;50.49
47374;BME280;33123;50.118;10.272;2023-04-08T12:08:51;98177.25;;;14.54;49.46
47374;BME280;33123;50.118;10.272;2023-04-08T12:11:18;98181.81;;;14.64;48.70
47374;BME280;33123;50.118;10.272;2023-04-08T12:13:45;98177.31;;;14.69;48.19
47374;BME280;33123;50.118;10.272;2023-04-08T12:16:13;98186.91;;;14.81;48.08
47374;BME280;33123;50.118;10.272;2023-04-08T12:18:40;98194.59;;;14.72;47.69
47374;BME280;33123;50.118;10.272;2023-04-08T12:21:08;98204.22;;;14.41;47.79
47374;BME280;33123;50.118;10.272;2023-04-08T12:23:35;98208.41;;;14.26;48.49
47374;BME280;33123;50.118;10.272;2023-04-08T12:26:01;98200.38;;;14.11;49.15
47374;BME280;33123;50.118;10.272;2023-04-08T12:28:28;98200.00;;;13.97;49.68
47374;BME280;33123;50.118;10.272;2023-04-08T12:30:55;98204.44;;;13.87;50.04
47374;BME280;33123;50.118;10.272;2023-04-08T12:33:22;98199.44;;;13.90;50.68
47374;BME280;33123;50.118;10.272;2023-04-08T12:35:48;98203.94;;;13.90;50.53
47374;BME280;33123;50.118;10.272;2023-04-08T12:38:16;98203.44;;;13.98;51.05
47374;BME280;33123;50.118;10.272;2023-04-08T12:40:43;98200.84;;;14.03;49.74
47374;BME280;33123;50.118;10.272;2023-04-08T12:43:10;98207.53;;;14.11;49.02
47374;BME280;33123;50.118;10.272;2023-04-08T12:45:37;98208.59;;;14.15;49.03
47374;BME280;33123;50.118;10.272;2023-04-08T12:48:04;98207.84;;;14.19;49.79
47374;BME280;33123;50.118;10.272;2023-04-08T12:50:30;98207.34;;;14.22;50.38
47374;BME280;33123;50.118;10.272;2023-04-08T12:52:57;98197.59;;;14.33;48.98
47374;BME280;33123;50.118;10.272;2023-04-08T12:55:25;98197.88;;;14.42;48.09
47374;BME280;33123;50.118;10.272;2023-04-08T12:57:52;98162.63;;;13.94;46.29
47374;BME280;33123;50.118;10.272;2023-04-08T13:00:18;98197.69;;;14.06;45.74